Time;durP1;ratioP1;P1;durP2;ratioP2;P2;SDS_P1;SDS_P2;PMS_P1;PMS_P2;Temp;Humidity;BMP_temperature;BMP_pressure;BME280_temperature;BME280_humidity;BME280_pressure;Samples;Min_cycle;Max_cycle;Signal;HPM_P1;HPM_P2
2022/01/06 00:00:59;;;;;;;10.20;2.70;;;2.80;99.90;;;;;;5020393;28;20396;-96
2022/01/06 00:03:27;;;;;;;16.33;3.15;;;3.20;99.90;;;;;;5005838;28;20043;-96
2022/01/06 00:05:54;;;;;;;11.70;2.47;;;3.20;99.90;;;;;;5022821;28;20037;-95
2022/01/06 00:08:19;;;;;;;12.05;2.60;;;2.70;99.90;;;;;;5004763;28;20045;-96
2022/01/06 00:10:48;;;;;;;10.57;2.80;;;2.60;99.90;;;;;;5015982;28;20045;-95
2022/01/06 00:13:17;;;;;;;13.25;2.47;;;2.60;99.90;;;;;;4988807;28;20029;-96
2022/01/06 00:23:32;;;;;;;15.35;3.20;;;2.40;99.90;;;;;;5004869;28;20061;-96
2022/01/06 00:25:58;;;;;;;8.77;2.40;;;2.30;99.90;;;;;;5001658;28;20041;-96
2022/01/06 00:28:25;;;;;;;10.27;2.80;;;2.30;99.90;;;;;;4997717;28;20045;-95
2022/01/06 00:30:51;;;;;;;13.85;2.75;;;3.50;99.90;;;;;;5017788;28;20675;-96
2022/01/06 00:33:18;;;;;;;9.93;2.30;;;2.20;99.90;;;;;;5001196;28;20040;-96
2022/01/06 00:35:45;;;;;;;16.65;3.42;;;2.10;99.90;;;;;;4998126;28;20040;-96
2022/01/06 00:38:10;;;;;;;15.20;2.97;;;2.80;99.90;;;;;;5017104;28;20800;-96
2022/01/06 00:40:37;;;;;;;10.65;2.80;;;2.10;99.90;;;;;;4999927;28;20033;-96
2022/01/06 00:43:05;;;;;;;15.68;2.67;;;2.10;99.90;;;;;;4995511;28;20045;-95
2022/01/06 00:45:31;;;;;;;10.85;2.60;;;2.00;99.90;;;;;;4998646;28;20073;-96
2022/01/06 00:47:57;;;;;;;15.77;3.00;;;2.10;99.90;;;;;;5005458;28;20038;-95
2022/01/06 00:50:23;;;;;;;12.38;2.70;;;2.90;99.90;;;;;;5019072;28;20120;-96
2022/01/06 00:52:49;;;;;;;11.45;2.60;;;2.70;99.90;;;;;;4993038;28;20076;-95
2022/01/06 00:55:15;;;;;;;9.27;2.15;;;3.20;99.90;;;;;;5000359;28;20068;-96
2022/01/06 00:57:41;;;;;;;20.77;3.10;;;2.20;99.90;;;;;;5003794;28;20477;-96
2022/01/06 01:00:07;;;;;;;12.32;2.25;;;2.00;99.90;;;;;;5018736;28;20045;-96
2022/01/06 01:02:33;;;;;;;10.25;2.78;;;2.00;99.90;;;;;;4987113;28;20076;-96
2022/01/06 01:04:59;;;;;;;13.00;2.88;;;3.00;99.90;;;;;;4979020;28;20081;-95
2022/01/06 01:07:24;;;;;;;16.00;2.40;;;2.10;99.90;;;;;;5009307;28;20683;-96
2022/01/06 01:09:50;;;;;;;21.30;2.95;;;2.30;99.90;;;;;;4996294;28;20052;-96
2022/01/06 01:12:16;;;;;;;12.75;2.85;;;3.50;99.90;;;;;;5019108;28;20037;-96
2022/01/06 01:14:53;;;;;;;11.63;2.40;;;2.30;99.90;;;;;;5025103;28;20021;-95
2022/01/06 01:17:19;;;;;;;13.48;2.95;;;3.60;99.90;;;;;;5030488;28;20057;-95
2022/01/06 01:19:45;;;;;;;13.45;3.22;;;2.50;99.90;;;;;;5033904;28;20025;-93
2022/01/06 01:22:11;;;;;;;11.60;2.60;;;3.20;99.90;;;;;;5018336;28;20056;-95
2022/01/06 01:24:37;;;;;;;18.60;3.22;;;2.50;99.90;;;;;;5020703;28;20037;-96
2022/01/06 01:27:04;;;;;;;16.15;3.05;;;2.40;99.90;;;;;;4997652;28;20080;-95
2022/01/06 01:29:34;;;;;;;14.82;2.75;;;2.30;99.90;;;;;;5024369;28;20124;-96
2022/01/06 01:31:59;;;;;;;16.45;3.47;;;2.30;99.90;;;;;;5006711;28;20029;-96
2022/01/06 01:34:27;;;;;;;13.48;2.45;;;2.30;99.90;;;;;;5016888;28;20063;-95
2022/01/06 01:36:55;;;;;;;17.80;3.15;;;2.20;99.90;;;;;;5022153;28;20040;-96
2022/01/06 01:39:22;;;;;;;11.23;3.10;;;2.20;99.90;;;;;;5035481;28;20515;-95
2022/01/06 01:41:49;;;;;;;15.63;3.17;;;2.50;99.90;;;;;;5024057;28;20497;-96
2022/01/06 01:44:18;;;;;;;8.40;2.38;;;2.50;99.90;;;;;;5017482;28;20102;-95
2022/01/06 01:46:52;;;;;;;15.65;3.42;;;1.90;99.90;;;;;;5016269;28;20088;-95
2022/01/06 01:51:50;;;;;;;11.98;2.42;;;2.90;99.90;;;;;;5022311;28;20052;-96
2022/01/06 01:54:16;;;;;;;13.50;3.13;;;2.80;99.90;;;;;;5006059;28;20029;-95
2022/01/06 01:56:43;;;;;;;9.80;2.78;;;1.90;99.90;;;;;;5041181;28;20155;-96
2022/01/06 01:59:09;;;;;;;17.55;3.65;;;1.90;99.90;;;;;;5008928;28;20041;-95
2022/01/06 02:01:35;;;;;;;17.35;2.72;;;1.70;99.90;;;;;;5017886;28;20120;-96
2022/01/06 02:04:01;;;;;;;18.27;2.97;;;1.60;99.90;;;;;;5016436;28;20064;-96
2022/01/06 02:06:26;;;;;;;26.20;4.43;;;1.60;99.90;;;;;;5024655;28;20037;-95
2022/01/06 02:08:54;;;;;;;19.83;3.53;;;1.60;99.90;;;;;;5015602;28;20095;-95
2022/01/06 02:11:21;;;;;;;13.25;3.20;;;2.80;99.90;;;;;;4990932;28;20077;-95
2022/01/06 02:13:52;;;;;;;18.80;3.38;;;2.60;99.90;;;;;;5038842;28;20041;-95
2022/01/06 02:16:27;;;;;;;15.00;2.70;;;1.60;99.90;;;;;;5024807;28;20121;-96
2022/01/06 02:18:54;;;;;;;20.25;3.58;;;1.60;99.90;;;;;;5006091;28;20037;-95
2022/01/06 02:21:20;;;;;;;14.00;3.42;;;2.30;99.90;;;;;;5024223;28;20036;-96
2022/01/06 02:23:46;;;;;;;15.00;2.80;;;1.60;99.90;;;;;;5023453;28;20088;-96
2022/01/06 02:26:12;;;;;;;21.85;3.92;;;2.20;99.90;;;;;;5041281;28;20081;-95
2022/01/06 02:28:40;;;;;;;15.80;2.83;;;1.50;99.90;;;;;;5002433;28;20458;-95
2022/01/06 02:31:06;;;;;;;14.48;3.20;;;1.50;99.90;;;;;;5004528;28;20037;-95
2022/01/06 02:33:32;;;;;;;13.70;2.80;;;2.30;99.90;;;;;;5015624;28;20080;-94
2022/01/06 02:35:58;;;;;;;17.13;3.53;;;1.40;99.90;;;;;;5021317;28;20033;-95
2022/01/06 02:38:24;;;;;;;14.13;3.60;;;1.40;99.90;;;;;;5019526;28;20436;-95
2022/01/06 02:40:50;;;;;;;17.50;3.00;;;1.30;99.90;;;;;;5008932;28;20067;-95
2022/01/06 02:43:18;;;;;;;17.50;3.85;;;1.30;99.90;;;;;;5035115;28;20044;-95
2022/01/06 02:45:46;;;;;;;12.00;2.85;;;1.30;99.90;;;;;;5019183;28;20055;-96
2022/01/06 02:48:14;;;;;;;20.90;3.40;;;1.20;99.90;;;;;;5002276;28;20033;-95
2022/01/06 02:50:45;;;;;;;18.65;3.47;;;1.20;99.90;;;;;;5021193;28;20041;-92
2022/01/06 02:53:13;;;;;;;21.17;3.70;;;1.90;99.90;;;;;;5021448;28;20048;-95
2022/01/06 02:55:47;;;;;;;24.85;3.65;;;2.30;99.90;;;;;;4983842;28;20025;-95
2022/01/06 02:58:13;;;;;;;17.52;3.88;;;1.20;99.90;;;;;;5018401;28;20036;-94
2022/01/06 03:00:38;;;;;;;13.90;3.20;;;1.20;99.90;;;;;;5015962;28;20047;-94
2022/01/06 03:03:04;;;;;;;16.83;3.58;;;1.70;99.90;;;;;;5002367;28;20410;-94
2022/01/06 03:05:30;;;;;;;17.35;3.17;;;1.20;99.90;;;;;;5001035;28;20114;-94
2022/01/06 03:07:55;;;;;;;27.60;3.72;;;1.50;99.90;;;;;;5021097;28;20067;-93
2022/01/06 03:10:22;;;;;;;16.20;3.67;;;1.20;99.90;;;;;;5015037;28;20032;-95
2022/01/06 03:12:49;;;;;;;14.43;2.72;;;2.40;99.90;;;;;;4995296;28;20034;-94
2022/01/06 03:15:20;;;;;;;17.98;3.22;;;1.70;99.90;;;;;;5016270;28;20031;-94
2022/01/06 03:17:57;;;;;;;17.45;3.53;;;1.50;99.90;;;;;;5036952;28;20064;-94
2022/01/06 03:20:26;;;;;;;16.52;3.30;;;1.30;99.90;;;;;;5004207;28;20047;-95
2022/01/06 03:22:56;;;;;;;35.10;4.68;;;2.10;99.90;;;;;;5019278;28;20467;-94
2022/01/06 03:25:22;;;;;;;22.00;3.58;;;1.10;99.90;;;;;;5020278;28;20037;-94
2022/01/06 03:27:48;;;;;;;19.75;3.45;;;1.10;99.90;;;;;;5020488;28;20052;-95
2022/01/06 03:30:17;;;;;;;15.68;3.20;;;1.20;99.90;;;;;;5006888;28;20029;-95
2022/01/06 03:32:43;;;;;;;22.05;4.00;;;1.40;99.90;;;;;;5036874;28;20473;-94
2022/01/06 03:35:10;;;;;;;10.27;3.25;;;1.30;99.90;;;;;;5035073;28;20045;-94
2022/01/06 03:37:36;;;;;;;19.85;4.50;;;1.40;99.90;;;;;;5015957;28;20030;-94
2022/01/06 03:40:04;;;;;;;21.80;4.05;;;1.30;99.90;;;;;;4997140;28;20041;-94
2022/01/06 03:42:34;;;;;;;17.92;3.35;;;1.30;99.90;;;;;;5001360;28;20044;-94
2022/01/06 03:45:01;;;;;;;14.43;3.35;;;1.40;99.90;;;;;;5007358;28;20036;-95
2022/01/06 03:47:26;;;;;;;17.55;3.22;;;2.10;99.90;;;;;;5004783;28;20123;-94
2022/01/06 03:49:52;;;;;;;15.32;3.95;;;1.30;99.90;;;;;;5001395;28;20061;-93
2022/01/06 03:52:18;;;;;;;11.35;3.10;;;1.50;99.90;;;;;;4985633;28;20029;-95
2022/01/06 03:54:43;;;;;;;28.52;3.80;;;2.10;99.90;;;;;;4985568;28;20040;-94
2022/01/06 03:57:09;;;;;;;16.90;3.65;;;1.30;99.90;;;;;;5003801;28;20440;-94
2022/01/06 03:59:35;;;;;;;21.10;4.45;;;1.20;99.90;;;;;;5019845;28;20153;-94
2022/01/06 04:02:02;;;;;;;14.02;3.50;;;1.10;99.90;;;;;;5011315;28;20489;-94
2022/01/06 04:04:28;;;;;;;22.30;3.17;;;1.10;99.90;;;;;;5000559;28;20128;-94
2022/01/06 04:06:53;;;;;;;15.35;3.63;;;1.00;99.90;;;;;;4984826;28;20068;-94
2022/01/06 04:09:19;;;;;;;12.02;3.80;;;1.50;99.90;;;;;;5001183;28;20034;-95
2022/01/06 04:11:45;;;;;;;13.90;2.90;;;2.10;99.90;;;;;;4999965;28;20095;-94
2022/01/06 04:14:10;;;;;;;13.32;3.10;;;0.70;99.90;;;;;;4991667;28;20038;-95
2022/01/06 04:16:39;;;;;;;20.13;3.28;;;1.20;99.90;;;;;;5003423;28;20033;-94
2022/01/06 04:19:05;;;;;;;18.67;3.53;;;1.20;99.90;;;;;;5007289;28;20037;-95
2022/01/06 04:21:30;;;;;;;16.27;3.28;;;0.60;99.90;;;;;;4998525;28;20531;-95
2022/01/06 04:23:56;;;;;;;11.65;2.78;;;0.50;99.90;;;;;;5019144;28;20057;-94
2022/01/06 04:26:22;;;;;;;13.25;3.15;;;1.40;99.90;;;;;;5003252;28;20045;-95
2022/01/06 04:28:48;;;;;;;11.80;3.35;;;0.40;99.90;;;;;;5033344;28;20040;-94
2022/01/06 04:31:13;;;;;;;16.67;2.92;;;0.30;99.90;;;;;;5010862;28;20037;-94
2022/01/06 04:33:39;;;;;;;10.55;3.00;;;0.30;99.90;;;;;;5019099;28;20068;-94
2022/01/06 04:36:06;;;;;;;8.07;2.75;;;0.30;99.90;;;;;;5019065;28;20041;-94
2022/01/06 04:38:33;;;;;;;15.45;3.17;;;0.20;99.90;;;;;;4985558;28;20034;-94
2022/01/06 04:40:59;;;;;;;17.60;3.20;;;0.20;99.90;;;;;;5019394;28;20036;-94
2022/01/06 04:43:25;;;;;;;13.60;2.97;;;0.20;99.90;;;;;;5000811;28;20044;-94
2022/01/06 04:45:51;;;;;;;9.27;3.03;;;0.20;99.90;;;;;;4999456;28;20675;-95
2022/01/06 04:48:16;;;;;;;15.40;3.22;;;0.10;99.90;;;;;;4986761;28;20037;-90
2022/01/06 04:50:42;;;;;;;16.60;3.75;;;1.30;99.90;;;;;;5009395;28;20421;-92
2022/01/06 04:53:08;;;;;;;15.75;3.22;;;1.20;99.90;;;;;;5031840;28;20039;-92
2022/01/06 04:55:33;;;;;;;17.05;3.42;;;0.10;99.90;;;;;;5007476;28;20079;-90
2022/01/06 04:57:59;;;;;;;15.02;3.35;;;0.00;99.90;;;;;;4991718;28;20091;-91
2022/01/06 05:00:25;;;;;;;15.57;3.10;;;0.80;99.90;;;;;;5000069;28;20048;-92
2022/01/06 05:02:51;;;;;;;18.65;3.70;;;-0.10;99.90;;;;;;4998756;28;20030;-92
2022/01/06 05:05:17;;;;;;;15.77;3.20;;;-0.20;99.90;;;;;;5014939;28;20044;-91
2022/01/06 05:07:44;;;;;;;22.08;3.00;;;-0.20;99.90;;;;;;5013937;28;20045;-90
2022/01/06 05:10:10;;;;;;;17.70;3.10;;;-0.20;99.90;;;;;;5013923;28;20037;-91
2022/01/06 05:12:43;;;;;;;21.75;3.60;;;-0.30;99.90;;;;;;5011415;28;20094;-91
2022/01/06 05:15:11;;;;;;;19.73;2.85;;;-0.30;99.90;;;;;;4999703;28;20044;-91
2022/01/06 05:17:37;;;;;;;15.65;2.67;;;-0.40;99.90;;;;;;5032285;28;20029;-90
2022/01/06 05:20:06;;;;;;;17.83;3.38;;;-0.50;99.90;;;;;;4999395;28;20044;-91
2022/01/06 05:22:33;;;;;;;12.00;3.75;;;-0.50;99.90;;;;;;4982681;28;20129;-91
2022/01/06 05:24:59;;;;;;;17.70;5.50;;;-0.50;99.90;;;;;;5009011;28;20044;-91
2022/01/06 05:27:25;;;;;;;15.68;5.68;;;-0.60;99.90;;;;;;5014930;28;20037;-90
2022/01/06 05:29:51;;;;;;;20.13;5.93;;;0.30;99.90;;;;;;4981397;28;20037;-91
2022/01/06 05:32:17;;;;;;;20.15;4.03;;;-0.50;99.90;;;;;;4998585;28;20414;-91
2022/01/06 05:34:42;;;;;;;25.70;3.88;;;0.40;99.90;;;;;;4998093;28;20083;-91
2022/01/06 05:37:08;;;;;;;17.55;3.30;;;0.40;99.90;;;;;;5012700;28;20486;-90
2022/01/06 05:39:34;;;;;;;17.05;3.28;;;0.20;99.90;;;;;;4996989;28;20029;-90
2022/01/06 05:42:00;;;;;;;10.88;2.85;;;0.00;99.90;;;;;;4998528;28;20711;-90
2022/01/06 05:44:26;;;;;;;16.85;3.38;;;-0.30;99.90;;;;;;5014560;28;20120;-90
2022/01/06 05:46:52;;;;;;;18.77;3.00;;;-0.20;99.90;;;;;;5014450;28;20049;-89
2022/01/06 05:49:17;;;;;;;15.05;3.20;;;0.70;99.90;;;;;;5014333;28;20051;-90
2022/01/06 05:51:43;;;;;;;19.85;2.80;;;-0.30;99.90;;;;;;4979576;28;20037;-90
2022/01/06 05:54:09;;;;;;;12.70;2.80;;;-0.30;99.90;;;;;;4982010;28;20037;-89
2022/01/06 05:56:35;;;;;;;13.02;2.90;;;-0.30;99.90;;;;;;5014873;28;20112;-90
2022/01/06 05:59:01;;;;;;;15.38;3.72;;;-0.30;99.90;;;;;;5012224;28;20163;-90
2022/01/06 06:01:26;;;;;;;21.27;3.85;;;-0.30;99.90;;;;;;4995607;28;20048;-89
2022/01/06 06:03:54;;;;;;;15.07;3.42;;;-0.30;99.90;;;;;;5015497;28;20045;-90
2022/01/06 06:06:20;;;;;;;21.60;3.88;;;-0.30;99.90;;;;;;5000307;28;20106;-89
2022/01/06 06:08:46;;;;;;;15.63;3.03;;;-0.40;99.90;;;;;;5017936;28;20132;-90
2022/01/06 06:11:12;;;;;;;15.65;3.80;;;-0.40;99.90;;;;;;5003660;28;20128;-91
2022/01/06 06:13:37;;;;;;;12.07;3.10;;;-0.40;99.90;;;;;;5005971;28;20468;-92
2022/01/06 06:16:03;;;;;;;17.70;3.67;;;-0.50;99.90;;;;;;4988361;28;20044;-92
2022/01/06 06:18:29;;;;;;;20.50;4.55;;;-0.50;99.90;;;;;;5014719;28;20046;-92
2022/01/06 06:20:55;;;;;;;15.02;3.25;;;-0.30;99.90;;;;;;5001787;28;20040;-90
2022/01/06 06:23:20;;;;;;;10.93;2.95;;;-0.40;99.90;;;;;;4996129;28;20053;-92
2022/01/06 06:25:46;;;;;;;18.40;3.63;;;-0.40;99.90;;;;;;5000862;28;20482;-91
2022/01/06 06:28:12;;;;;;;12.05;3.38;;;-0.40;99.90;;;;;;4996886;28;20038;-91
2022/01/06 06:30:38;;;;;;;14.05;3.30;;;-0.40;99.90;;;;;;5016229;28;20033;-92
2022/01/06 06:33:04;;;;;;;21.40;3.08;;;-0.40;99.90;;;;;;5003101;28;20455;-92
2022/01/06 06:35:30;;;;;;;12.70;2.72;;;-0.40;99.90;;;;;;5002651;28;20037;-91
2022/01/06 06:37:56;;;;;;;17.17;2.88;;;-0.40;99.90;;;;;;5001301;28;20104;-92
2022/01/06 06:40:23;;;;;;;9.55;2.67;;;-0.40;99.90;;;;;;5001667;28;20098;-91
2022/01/06 06:42:50;;;;;;;14.60;3.58;;;-0.30;99.90;;;;;;5035913;28;20045;-92
2022/01/06 06:45:16;;;;;;;20.00;3.88;;;-0.20;99.90;;;;;;5006605;28;20052;-92
2022/01/06 06:47:42;;;;;;;16.52;3.28;;;-0.20;99.90;;;;;;5042747;28;20080;-91
2022/01/06 06:50:08;;;;;;;13.77;2.83;;;-0.20;99.90;;;;;;5007393;28;20059;-92
2022/01/06 06:52:34;;;;;;;20.08;3.28;;;-0.10;99.90;;;;;;5027660;28;20056;-92
2022/01/06 06:55:00;;;;;;;16.33;2.80;;;-0.10;99.90;;;;;;5043267;28;20036;-92
2022/01/06 06:57:26;;;;;;;23.70;3.92;;;1.00;99.90;;;;;;5035362;28;20028;-91
2022/01/06 06:59:52;;;;;;;18.98;3.83;;;-0.10;99.90;;;;;;5042600;28;20096;-91
2022/01/06 07:02:17;;;;;;;16.90;3.08;;;-0.20;99.90;;;;;;5008678;28;20045;-92
2022/01/06 07:04:43;;;;;;;15.90;3.42;;;0.60;99.90;;;;;;5021191;28;20037;-92
2022/01/06 07:07:09;;;;;;;12.77;3.45;;;-0.20;99.90;;;;;;5004478;28;20037;-93
2022/01/06 07:09:34;;;;;;;25.67;3.30;;;-0.20;99.90;;;;;;5002578;28;20099;-93
2022/01/06 07:12:00;;;;;;;14.77;2.85;;;-0.20;99.90;;;;;;5024145;28;20037;-94
2022/01/06 07:14:26;;;;;;;17.52;3.28;;;-0.20;99.90;;;;;;4984628;28;20044;-93
2022/01/06 07:16:51;;;;;;;23.33;3.45;;;-0.30;99.90;;;;;;5003327;28;20037;-94
2022/01/06 07:19:17;;;;;;;19.30;3.83;;;-0.30;99.90;;;;;;5019126;28;20033;-93
2022/01/06 07:21:43;;;;;;;25.77;4.03;;;-0.30;99.90;;;;;;4987912;28;20041;-93
2022/01/06 07:24:08;;;;;;;25.35;3.40;;;-0.20;99.90;;;;;;4987319;28;20053;-94
2022/01/06 07:26:34;;;;;;;21.20;4.80;;;-0.40;99.90;;;;;;5017544;28;20529;-94
2022/01/06 07:29:00;;;;;;;14.57;3.35;;;-0.30;99.90;;;;;;5012764;28;20036;-93
2022/01/06 07:31:25;;;;;;;15.90;3.25;;;-0.30;99.90;;;;;;4996960;28;20060;-93
2022/01/06 07:33:51;;;;;;;16.08;3.85;;;-0.30;99.90;;;;;;5003913;28;20037;-91
2022/01/06 07:36:17;;;;;;;12.93;2.95;;;-0.30;99.90;;;;;;5013008;28;20034;-93
2022/01/06 07:38:43;;;;;;;11.50;2.80;;;-0.30;99.90;;;;;;4987330;28;20040;-92
2022/01/06 07:41:08;;;;;;;17.58;2.97;;;0.40;99.90;;;;;;5003858;28;20037;-93
2022/01/06 07:43:34;;;;;;;10.82;3.15;;;-0.40;99.90;;;;;;5017388;28;20025;-93
2022/01/06 07:46:00;;;;;;;13.43;3.67;;;0.60;99.90;;;;;;5036536;28;20558;-94
2022/01/06 07:48:30;;;;;;;19.85;5.93;;;-0.40;99.90;;;;;;5012743;28;20037;-93
2022/01/06 07:50:56;;;;;;;25.35;6.88;;;0.00;99.90;;;;;;5036161;28;20136;-92
2022/01/06 07:53:22;;;;;;;15.45;5.35;;;-0.20;99.90;;;;;;4997427;28;20045;-93
2022/01/06 07:55:47;;;;;;;27.38;4.47;;;0.80;99.90;;;;;;5011943;28;20033;-94
2022/01/06 07:58:13;;;;;;;22.17;5.25;;;-0.20;99.90;;;;;;5011110;28;20117;-94
2022/01/06 08:00:39;;;;;;;20.13;4.95;;;-0.10;99.90;;;;;;4977770;28;20069;-94
2022/01/06 08:03:05;;;;;;;18.67;4.28;;;-0.10;99.90;;;;;;5004171;28;20032;-95
2022/01/06 08:05:30;;;;;;;16.27;3.88;;;-0.10;99.90;;;;;;4985311;28;20446;-96
2022/01/06 08:07:56;;;;;;;21.67;4.15;;;-0.10;99.90;;;;;;4987375;28;20043;-96
2022/01/06 08:10:23;;;;;;;21.98;3.80;;;-0.10;99.90;;;;;;5000958;28;20083;-95
2022/01/06 08:12:49;;;;;;;19.73;4.20;;;-0.10;99.90;;;;;;5018848;28;20033;-95
2022/01/06 08:15:15;;;;;;;20.60;3.58;;;-0.10;99.90;;;;;;5015585;28;20065;-95
2022/01/06 08:17:41;;;;;;;16.02;4.05;;;1.00;99.90;;;;;;5013309;28;20074;-95
2022/01/06 08:20:08;;;;;;;23.25;3.65;;;0.00;99.90;;;;;;5019967;28;20121;-95
2022/01/06 08:22:38;;;;;;;15.43;3.15;;;0.00;99.90;;;;;;5000923;28;20124;-95
2022/01/06 08:25:07;;;;;;;12.55;2.97;;;0.10;99.90;;;;;;5005251;28;20049;-85
2022/01/06 08:27:33;;;;;;;13.35;3.70;;;0.20;99.90;;;;;;5014767;28;20045;-85
2022/01/06 08:29:59;;;;;;;20.48;3.50;;;0.10;99.90;;;;;;5000901;28;20100;-85
2022/01/06 08:32:24;;;;;;;13.30;4.07;;;0.10;99.90;;;;;;5016719;28;20041;-86
2022/01/06 08:34:50;;;;;;;18.67;3.78;;;0.90;99.90;;;;;;5013867;28;20037;-86
2022/01/06 08:37:17;;;;;;;15.48;4.13;;;0.00;99.90;;;;;;4998857;28;20037;-87
2022/01/06 08:39:42;;;;;;;16.02;3.22;;;1.20;99.90;;;;;;4994051;28;20030;-87
2022/01/06 08:42:08;;;;;;;11.13;2.92;;;0.00;99.90;;;;;;5000805;28;20040;-89
2022/01/06 08:44:35;;;;;;;18.65;4.15;;;0.00;99.90;;;;;;5002043;28;20731;-86
2022/01/06 08:47:01;;;;;;;18.45;4.75;;;1.30;99.90;;;;;;5011183;28;20701;-86
2022/01/06 08:49:28;;;;;;;26.42;4.35;;;0.10;99.90;;;;;;5001332;28;20041;-85
2022/01/06 08:51:53;;;;;;;14.85;3.55;;;0.20;99.90;;;;;;5010499;28;20116;-85
2022/01/06 08:54:19;;;;;;;16.20;3.83;;;1.10;99.90;;;;;;5000812;28;20920;-86
2022/01/06 08:56:45;;;;;;;14.65;4.30;;;0.90;99.90;;;;;;5015415;28;20458;-86
2022/01/06 08:59:11;;;;;;;20.02;3.97;;;0.40;99.90;;;;;;5007423;28;20245;-85
2022/01/06 09:01:37;;;;;;;19.85;4.28;;;1.20;99.90;;;;;;4998556;28;20075;-85
2022/01/06 09:04:03;;;;;;;17.13;4.10;;;1.00;99.90;;;;;;5000182;28;20040;-85
2022/01/06 09:06:29;;;;;;;19.70;4.30;;;0.70;99.90;;;;;;5013402;28;20041;-85
2022/01/06 09:08:55;;;;;;;18.05;4.30;;;1.00;99.90;;;;;;5000433;28;20061;-85
2022/01/06 09:11:20;;;;;;;15.57;3.28;;;2.40;99.90;;;;;;5015849;28;20056;-85
2022/01/06 09:13:46;;;;;;;14.63;3.97;;;2.20;99.90;;;;;;5014926;28;20498;-85
2022/01/06 09:16:13;;;;;;;12.52;3.97;;;2.90;99.90;;;;;;5000781;28;20075;-86
2022/01/06 09:18:40;;;;;;;16.58;4.18;;;3.50;99.90;;;;;;4985954;28;20038;-87
2022/01/06 09:21:08;;;;;;;12.57;3.13;;;3.90;99.90;;;;;;4997454;28;20569;-87
2022/01/06 09:23:34;;;;;;;18.92;3.65;;;4.90;99.90;;;;;;5001107;28;20061;-86
2022/01/06 09:25:59;;;;;;;15.77;3.40;;;5.40;99.90;;;;;;4974137;28;20494;-87
2022/01/06 09:28:26;;;;;;;18.80;4.38;;;4.90;99.90;;;;;;5001544;28;20048;-86
2022/01/06 09:30:52;;;;;;;19.70;3.65;;;5.40;99.90;;;;;;4987045;28;20037;-86
2022/01/06 09:33:19;;;;;;;15.93;3.63;;;5.00;99.90;;;;;;5017827;28;20042;-87
2022/01/06 09:35:46;;;;;;;13.43;3.78;;;4.40;99.90;;;;;;4984919;28;20124;-86
2022/01/06 09:38:13;;;;;;;12.27;3.22;;;4.20;99.90;;;;;;4982357;28;20048;-90
2022/01/06 09:40:41;;;;;;;12.50;3.13;;;4.20;99.90;;;;;;5019428;28;20451;-90
2022/01/06 09:43:08;;;;;;;21.52;4.07;;;4.70;99.90;;;;;;5017544;28;20613;-85
2022/01/06 09:45:35;;;;;;;13.73;3.42;;;4.50;99.90;;;;;;5021681;28;20037;-85
2022/01/06 09:48:02;;;;;;;12.77;3.80;;;4.50;99.90;;;;;;5018630;28;20053;-86
2022/01/06 09:50:28;;;;;;;17.65;4.15;;;4.60;99.90;;;;;;5003222;28;20128;-86
2022/01/06 09:52:53;;;;;;;19.27;4.57;;;4.50;99.90;;;;;;4996978;28;20037;-86
2022/01/06 09:55:21;;;;;;;16.25;4.03;;;5.50;99.90;;;;;;5004045;28;20126;-86
2022/01/06 09:58:05;;;;;;;16.95;4.13;;;4.50;99.90;;;;;;5004109;28;20045;-86
2022/01/06 10:00:33;;;;;;;17.40;3.50;;;3.80;99.90;;;;;;5010827;28;20059;-87
2022/01/06 10:03:04;;;;;;;16.48;3.28;;;3.90;99.90;;;;;;5019997;28;20399;-86
2022/01/06 10:05:44;;;;;;;28.73;4.53;;;3.20;99.90;;;;;;5010565;28;20045;-89
2022/01/06 10:08:11;;;;;;;13.30;3.75;;;3.50;99.90;;;;;;5017914;28;20501;-89
2022/01/06 10:10:38;;;;;;;14.30;3.50;;;3.60;99.90;;;;;;4988668;28;20050;-89
2022/01/06 10:13:07;;;;;;;15.70;4.45;;;4.50;99.90;;;;;;5006762;28;20041;-92
2022/01/06 10:15:35;;;;;;;22.80;4.25;;;4.60;99.90;;;;;;5000657;28;20045;-89
2022/01/06 10:18:16;;;;;;;19.30;3.75;;;3.30;99.90;;;;;;5006686;28;20105;-93
2022/01/06 10:20:43;;;;;;;20.05;3.85;;;3.70;99.90;;;;;;5008200;28;20110;-92
2022/01/06 10:23:14;;;;;;;19.08;4.10;;;3.00;99.90;;;;;;5017432;28;20049;-94
2022/01/06 10:25:49;;;;;;;23.10;4.80;;;3.60;99.90;;;;;;4976725;28;20540;-93
2022/01/06 10:28:23;;;;;;;15.85;3.78;;;3.00;99.90;;;;;;5016788;28;20490;-90
2022/01/06 10:30:49;;;;;;;14.30;3.75;;;3.00;99.90;;;;;;4975386;28;20034;-91
2022/01/06 10:33:20;;;;;;;14.40;3.58;;;3.60;99.90;;;;;;5014275;28;20671;-92
2022/01/06 10:35:47;;;;;;;17.77;4.13;;;3.30;99.90;;;;;;5015281;28;20041;-91
2022/01/06 10:38:13;;;;;;;19.00;4.05;;;3.40;99.90;;;;;;5023431;28;20050;-91
2022/01/06 10:40:39;;;;;;;14.38;4.03;;;3.30;99.90;;;;;;5001744;28;20041;-92
2022/01/06 10:43:05;;;;;;;21.45;4.95;;;3.20;99.90;;;;;;5000388;28;20147;-93
2022/01/06 10:45:33;;;;;;;18.70;4.10;;;3.10;99.90;;;;;;4997831;28;20049;-91
2022/01/06 10:48:01;;;;;;;17.20;3.70;;;3.00;99.90;;;;;;5017999;28;20044;-90
2022/01/06 10:50:34;;;;;;;17.02;3.83;;;3.00;99.90;;;;;;5005423;28;20054;-90
2022/01/06 10:53:10;;;;;;;14.90;3.97;;;2.90;99.90;;;;;;5019471;28;20148;-89
2022/01/06 10:55:37;;;;;;;13.48;3.40;;;3.00;99.90;;;;;;5004206;28;20044;-86
2022/01/06 10:58:17;;;;;;;23.40;4.45;;;3.00;99.90;;;;;;5020771;28;20287;-86
2022/01/06 11:00:47;;;;;;;14.07;3.83;;;3.00;99.90;;;;;;5003503;28;20049;-86
2022/01/06 11:03:15;;;;;;;16.15;3.95;;;4.20;99.90;;;;;;5014072;28;20470;-87
2022/01/06 11:05:45;;;;;;;21.58;4.35;;;3.20;99.90;;;;;;5017131;28;20283;-86
2022/01/06 11:08:13;;;;;;;19.73;4.35;;;3.30;99.90;;;;;;5017508;28;20037;-86
2022/01/06 11:10:46;;;;;;;12.15;3.60;;;3.40;99.90;;;;;;4988804;28;20034;-88
2022/01/06 11:13:14;;;;;;;15.35;4.63;;;3.70;99.90;;;;;;5004835;28;20091;-86
2022/01/06 11:15:41;;;;;;;24.85;4.60;;;3.90;99.90;;;;;;5000701;28;20036;-84
2022/01/06 11:18:07;;;;;;;18.50;4.30;;;4.10;99.90;;;;;;5016359;28;20041;-84
2022/01/06 11:20:33;;;;;;;21.80;4.97;;;4.00;99.90;;;;;;5019076;28;20575;-84
2022/01/06 11:23:00;;;;;;;18.02;4.75;;;4.00;99.90;;;;;;4998536;28;20053;-84
2022/01/06 11:25:39;;;;;;;15.93;4.82;;;4.10;99.90;;;;;;5018943;28;20045;-85
2022/01/06 11:28:09;;;;;;;16.05;4.07;;;4.10;99.90;;;;;;5013762;28;20506;-84
2022/01/06 11:30:39;;;;;;;14.90;4.10;;;4.10;99.90;;;;;;5003251;28;20137;-84
2022/01/06 11:33:05;;;;;;;15.85;4.15;;;4.90;99.90;;;;;;5018325;28;20069;-84
2022/01/06 11:35:47;;;;;;;18.77;3.90;;;4.00;99.90;;;;;;5002301;28;20143;-84
2022/01/06 11:38:15;;;;;;;21.00;5.28;;;4.40;99.90;;;;;;4988250;28;20116;-84
2022/01/06 11:40:42;;;;;;;18.98;4.63;;;4.10;99.90;;;;;;5002359;28;20506;-83
2022/01/06 11:43:08;;;;;;;21.02;4.50;;;4.10;99.90;;;;;;5019536;28;20118;-84
2022/01/06 11:45:34;;;;;;;14.52;4.00;;;4.10;99.90;;;;;;5020318;28;21546;-87
2022/01/06 11:48:00;;;;;;;22.95;4.40;;;4.10;99.90;;;;;;5018299;28;20052;-88
2022/01/06 11:50:26;;;;;;;20.38;4.45;;;4.80;99.90;;;;;;5016393;28;20045;-89
2022/01/06 11:53:00;;;;;;;19.05;3.90;;;4.40;99.90;;;;;;4989979;28;20042;-89
2022/01/06 11:55:35;;;;;;;13.27;3.75;;;4.20;99.90;;;;;;5020631;28;20138;-88
2022/01/06 11:58:18;;;;;;;18.45;3.97;;;4.20;99.90;;;;;;5000495;28;20145;-89
2022/01/06 12:01:13;;;;;;;;;;;4.30;99.90;;;;;;5003352;28;20079;-89
2022/01/06 12:03:43;;;;;;;13.73;3.63;;;4.30;99.90;;;;;;4971464;28;19917;-90
2022/01/06 12:06:21;;;;;;;16.65;3.80;;;4.40;99.90;;;;;;4986690;28;20041;-90
2022/01/06 12:08:47;;;;;;;11.27;3.50;;;4.80;99.90;;;;;;5005089;28;20045;-90
2022/01/06 12:11:26;;;;;;;13.82;4.25;;;4.70;99.90;;;;;;4999141;28;20458;-90
2022/01/06 12:13:54;;;;;;;13.63;3.17;;;4.50;99.90;;;;;;5004986;28;20042;-90
2022/01/06 12:16:29;;;;;;;13.63;3.20;;;4.70;99.90;;;;;;5015097;28;20041;-90
2022/01/06 12:18:56;;;;;;;18.83;4.38;;;5.50;99.90;;;;;;5004632;28;20087;-88
2022/01/06 12:21:22;;;;;;;19.05;3.80;;;4.70;99.90;;;;;;4989994;28;20037;-90
2022/01/06 12:23:59;;;;;;;18.25;3.53;;;4.70;99.90;;;;;;4999781;28;20131;-89
2022/01/06 12:26:25;;;;;;;11.55;3.53;;;4.80;99.90;;;;;;5004835;28;20048;-90
2022/01/06 12:28:51;;;;;;;18.13;4.03;;;4.80;99.90;;;;;;5005276;28;20132;-89
2022/01/06 12:31:22;;;;;;;17.77;3.55;;;5.50;99.90;;;;;;5003945;28;20132;-87
2022/01/06 12:33:49;;;;;;;17.45;4.00;;;5.10;99.90;;;;;;5019546;28;20033;-87
2022/01/06 12:36:21;;;;;;;21.42;4.13;;;5.10;99.90;;;;;;5018245;28;20033;-88
2022/01/06 12:38:47;;;;;;;25.25;3.85;;;5.20;99.90;;;;;;5001865;28;20034;-84
2022/01/06 12:41:16;;;;;;;15.95;3.17;;;5.30;99.90;;;;;;4997721;28;20120;-85
2022/01/06 12:43:43;;;;;;;22.60;3.58;;;5.40;99.90;;;;;;5022886;28;20045;-84
2022/01/06 12:46:14;;;;;;;19.33;4.00;;;5.40;99.90;;;;;;5001725;28;20033;-86
2022/01/06 12:48:51;;;;;;;14.52;3.53;;;5.50;99.90;;;;;;5029032;28;20048;-85
2022/01/06 12:51:23;;;;;;;18.45;3.78;;;5.60;99.90;;;;;;5037098;28;20077;-84
2022/01/06 12:53:51;;;;;;;14.82;3.45;;;5.60;99.90;;;;;;5037478;28;20060;-86
2022/01/06 12:56:30;;;;;;;15.63;3.70;;;5.70;99.90;;;;;;5018246;28;20037;-86